createdAt,value
2022-09-12T00:10:00.349Z,11.20
2022-09-12T00:20:08.948Z,11.10
2022-09-12T00:30:12.603Z,12.87
2022-09-12T00:40:15.190Z,11.27
2022-09-12T00:50:27.220Z,12.00
2022-09-12T01:00:30.502Z,11.43
2022-09-12T01:10:43.511Z,11.43
2022-09-12T01:21:05.056Z,10.13
2022-09-12T01:31:40.912Z,9.50
2022-09-12T01:42:10.929Z,9.27
2022-09-12T01:52:33.105Z,8.47
2022-09-12T02:03:02.587Z,8.53
2022-09-12T02:13:15.727Z,13.43
2022-09-12T02:23:32.268Z,14.23
2022-09-12T02:34:04.871Z,15.07
2022-09-12T02:44:09.665Z,16.17
2022-09-12T02:54:15.837Z,14.53
2022-09-12T03:04:57.691Z,20.33
2022-09-12T03:15:10.922Z,15.23
2022-09-12T03:25:31.393Z,18.23
2022-09-12T03:35:33.060Z,15.20
2022-09-12T03:45:36.057Z,14.90
2022-09-12T03:55:39.397Z,16.03
2022-09-12T04:05:41.015Z,15.93
2022-09-12T04:15:42.458Z,11.83
2022-09-12T04:25:44.000Z,10.97
2022-09-12T04:35:45.540Z,12.13
2022-09-12T04:45:47.038Z,12.07
2022-09-12T04:55:48.946Z,14.20
2022-09-12T05:05:53.314Z,18.60
2022-09-12T05:15:59.966Z,11.33
2022-09-12T05:26:03.432Z,17.40
2022-09-12T05:36:09.510Z,10.73
2022-09-12T05:46:22.038Z,12.47
2022-09-12T05:56:26.195Z,9.90
2022-09-12T06:06:29.358Z,9.73
2022-09-12T06:16:32.769Z,7.93
2022-09-12T06:26:34.746Z,11.70
2022-09-12T06:36:42.100Z,8.70
2022-09-12T06:46:44.565Z,14.60
2022-09-12T06:56:46.126Z,9.77
2022-09-12T07:06:48.071Z,7.57
2022-09-12T07:16:49.495Z,7.20
2022-09-12T07:26:50.984Z,7.50
2022-09-12T07:36:52.465Z,9.13
2022-09-12T07:46:53.908Z,7.17
2022-09-12T07:56:55.616Z,13.37
2022-09-12T08:06:57.248Z,11.57
2022-09-12T08:16:58.744Z,12.97
2022-09-12T08:27:00.265Z,15.07
2022-09-12T08:37:02.056Z,14.57
2022-09-12T08:47:25.101Z,15.73
2022-09-12T08:57:26.752Z,11.88
2022-09-12T09:07:42.347Z,12.07
2022-09-12T09:17:49.948Z,11.65
2022-09-12T09:28:12.765Z,9.00
2022-09-12T09:38:54.170Z,8.05
2022-09-12T09:48:59.280Z,7.28
2022-09-12T09:59:26.499Z,6.20
2022-09-12T10:09:33.703Z,5.68
2022-09-12T10:19:40.490Z,5.50
2022-09-12T10:29:48.367Z,4.32
2022-09-12T10:39:56.224Z,3.35
2022-09-12T10:50:28.488Z,3.08
2022-09-12T11:00:34.535Z,1.52
2022-09-12T11:10:51.769Z,1.95
2022-09-12T11:21:09.650Z,3.60
2022-09-12T11:31:24.982Z,9.68
2022-09-12T11:41:37.947Z,4.33
2022-09-12T11:52:11.083Z,5.20
2022-09-12T12:02:20.738Z,7.33
2022-09-12T12:12:27.560Z,3.70
2022-09-12T12:22:29.271Z,4.50
2022-09-12T12:32:30.732Z,4.33
2022-09-12T12:42:35.165Z,3.80
2022-09-12T12:52:51.544Z,4.10
2022-09-12T13:03:08.044Z,3.83
2022-09-12T13:13:09.719Z,4.07
2022-09-12T13:23:26.702Z,3.90
2022-09-12T13:33:51.033Z,4.22
2022-09-12T13:43:52.845Z,4.10
2022-09-12T13:53:58.716Z,4.53
2022-09-12T14:04:18.846Z,4.45
2022-09-12T14:14:38.967Z,4.45
2022-09-12T14:24:40.794Z,3.78
2022-09-12T14:34:42.529Z,4.50
2022-09-12T14:44:58.188Z,4.45
2022-09-12T14:55:23.897Z,4.10
2022-09-12T15:05:27.495Z,5.17
2022-09-12T15:15:28.928Z,4.50
2022-09-12T15:25:30.424Z,5.57
2022-09-12T15:35:33.579Z,4.87
2022-09-12T15:45:35.418Z,5.33
2022-09-12T15:55:37.391Z,5.37
2022-09-12T16:05:38.815Z,4.90
2022-09-12T16:15:40.859Z,5.20
2022-09-12T16:25:42.993Z,9.03
2022-09-12T16:35:44.729Z,5.10
2022-09-12T16:45:46.851Z,4.63
2022-09-12T16:55:49.401Z,7.40
2022-09-12T17:06:01.208Z,7.50
2022-09-12T17:16:07.539Z,5.33
2022-09-12T17:26:10.565Z,5.63
2022-09-12T17:36:17.766Z,5.67
2022-09-12T17:46:19.965Z,5.47
2022-09-12T17:56:21.487Z,5.63
2022-09-12T18:06:24.079Z,6.23
2022-09-12T18:16:26.684Z,6.83
2022-09-12T18:26:29.773Z,6.87
2022-09-12T18:36:31.703Z,6.53
2022-09-12T18:46:34.889Z,7.67
2022-09-12T18:56:38.229Z,7.03
2022-09-12T19:06:42.964Z,6.70
2022-09-12T19:16:44.735Z,6.67
2022-09-12T19:26:46.293Z,7.23
2022-09-12T19:36:47.963Z,7.70
2022-09-12T19:46:49.685Z,7.70
2022-09-12T19:56:51.308Z,8.57
2022-09-12T20:06:52.782Z,9.00
2022-09-12T20:16:54.264Z,9.10
2022-09-12T20:26:57.703Z,9.83
2022-09-12T20:36:59.253Z,9.53
2022-09-12T20:47:00.786Z,9.57
2022-09-12T20:57:02.400Z,10.53
2022-09-12T21:07:03.941Z,10.63
2022-09-12T21:17:05.674Z,10.63
2022-09-12T21:27:07.429Z,10.90
2022-09-12T21:37:09.128Z,10.40
2022-09-12T21:47:10.632Z,11.33
2022-09-12T21:57:12.118Z,11.20
2022-09-12T22:07:14.996Z,11.23
2022-09-12T22:17:16.791Z,26.70
2022-09-12T22:27:18.375Z,13.23
2022-09-12T22:37:23.017Z,13.97
2022-09-12T22:47:24.867Z,13.17
2022-09-12T22:57:26.831Z,12.50
2022-09-12T23:07:28.741Z,13.63
2022-09-12T23:17:30.334Z,12.77
2022-09-12T23:27:32.850Z,12.87
2022-09-12T23:37:34.665Z,11.83
2022-09-12T23:47:36.356Z,12.40
2022-09-12T23:57:39.361Z,14.13
